Time;durP1;ratioP1;P1;durP2;ratioP2;P2;SDS_P1;SDS_P2;PMS_P1;PMS_P2;Temp;Humidity;BMP_temperature;BMP_pressure;BME280_temperature;BME280_humidity;BME280_pressure;Samples;Min_cycle;Max_cycle;Signal;HPM_P1;HPM_P2
2022/07/09 00:00:35;;;;;;;;;;;;;;;19.18;60.24;100239.56;4454185;32;20011;-89
2022/07/09 00:03:00;;;;;;;;;;;;;;;19.25;60.24;100243.53;4455005;32;21163;-88
2022/07/09 00:05:25;;;;;;;;;;;;;;;19.23;60.24;100240.13;4442079;32;20000;-88
2022/07/09 00:07:51;;;;;;;;;;;;;;;19.16;60.24;100255.47;4441752;32;20032;-89
2022/07/09 00:10:16;;;;;;;;;;;;;;;19.31;60.25;100254.56;4452847;32;20399;-88
2022/07/09 00:12:41;;;;;;;;;;;;;;;19.31;60.25;100259.84;4442298;32;20407;-88
2022/07/09 00:15:07;;;;;;;;;;;;;;;19.27;60.24;100265.38;4442282;32;20002;-88
2022/07/09 00:17:32;;;;;;;;;;;;;;;19.24;60.24;100269.06;4442146;32;20048;-88
2022/07/09 00:19:57;;;;;;;;;;;;;;;19.17;60.24;100267.75;4442272;32;20041;-88
2022/07/09 00:22:22;;;;;;;;;;;;;;;19.32;60.25;100261.53;4442103;32;20348;-87
2022/07/09 00:24:48;;;;;;;;;;;;;;;19.25;60.25;100262.84;4454539;32;26187;-87
2022/07/09 00:27:13;;;;;;;;;;;;;;;19.08;60.24;100255.06;4441988;32;20008;-89
2022/07/09 00:29:38;;;;;;;;;;;;;;;19.22;60.24;100262.19;4442029;32;19981;-88
2022/07/09 00:32:03;;;;;;;;;;;;;;;19.24;60.25;100253.22;4455195;32;20016;-88
2022/07/09 00:34:29;;;;;;;;;;;;;;;19.08;60.24;100257.72;4442317;32;19968;-89
2022/07/09 00:36:54;;;;;;;;;;;;;;;19.14;60.24;100256.50;4452498;32;20040;-88
2022/07/09 00:39:19;;;;;;;;;;;;;;;19.11;60.23;100270.72;4441858;32;20305;-88
2022/07/09 00:41:44;;;;;;;;;;;;;;;18.99;60.24;100248.56;4441943;32;19993;-87
2022/07/09 00:44:10;;;;;;;;;;;;;;;18.78;60.23;100248.97;4454385;32;20020;-87
2022/07/09 00:46:35;;;;;;;;;;;;;;;18.91;60.22;100253.41;4441330;32;20780;-87
2022/07/09 00:49:06;;;;;;;;;;;;;;;18.88;60.23;100250.09;4468744;32;20016;-86
2022/07/09 00:51:31;;;;;;;;;;;;;;;18.83;60.22;100250.37;4455266;32;19990;-88
2022/07/09 00:53:57;;;;;;;;;;;;;;;18.92;60.23;100249.84;4441994;32;20299;-86
2022/07/09 00:56:22;;;;;;;;;;;;;;;18.81;60.22;100249.63;4455120;32;20016;-87
2022/07/09 00:58:47;;;;;;;;;;;;;;;18.86;60.23;100249.34;4455097;32;19981;-87
2022/07/09 01:01:12;;;;;;;;;;;;;;;18.83;60.22;100247.75;4454695;32;20034;-87
2022/07/09 01:03:37;;;;;;;;;;;;;;;18.94;60.23;100252.41;4468871;32;19999;-87
2022/07/09 01:06:03;;;;;;;;;;;;;;;18.84;60.23;100248.59;4455128;32;20009;-86
2022/07/09 01:08:28;;;;;;;;;;;;;;;18.90;60.23;100257.00;4455459;32;19993;-86
2022/07/09 01:10:53;;;;;;;;;;;;;;;18.89;60.22;100247.37;4441691;32;27469;-86
2022/07/09 01:13:19;;;;;;;;;;;;;;;18.95;60.23;100241.78;4456784;32;19995;-87
2022/07/09 01:15:44;;;;;;;;;;;;;;;18.82;60.22;100240.78;4443393;32;20044;-86
2022/07/09 01:18:10;;;;;;;;;;;;;;;18.79;60.22;100243.59;4455815;32;27937;-85
2022/07/09 01:20:35;;;;;;;;;;;;;;;18.89;60.22;100239.47;4470684;32;19985;-85
2022/07/09 01:23:00;;;;;;;;;;;;;;;18.67;60.21;100242.50;4443382;32;19993;-86
2022/07/09 01:25:34;;;;;;;;;;;;;;;18.75;60.21;100238.59;4443210;32;26079;-85
2022/07/09 01:27:59;;;;;;;;;;;;;;;18.81;60.22;100232.94;4457717;32;19996;-86
2022/07/09 01:30:25;;;;;;;;;;;;;;;18.75;60.21;100233.31;4444211;32;24494;-86
2022/07/09 01:32:50;;;;;;;;;;;;;;;18.51;60.20;100231.13;4457631;32;20233;-86
2022/07/09 01:35:15;;;;;;;;;;;;;;;18.37;60.21;100223.97;4457557;32;19977;-86
2022/07/09 01:37:40;;;;;;;;;;;;;;;18.39;60.20;100218.62;4457729;32;20265;-88
2022/07/09 01:40:06;;;;;;;;;;;;;;;18.25;60.19;100213.31;4444214;32;19977;-87
2022/07/09 01:42:31;;;;;;;;;;;;;;;18.21;60.18;100219.66;4457405;32;20000;-86
2022/07/09 01:44:56;;;;;;;;;;;;;;;18.17;60.19;100215.50;4471223;32;26266;-87
2022/07/09 01:47:22;;;;;;;;;;;;;;;18.24;60.19;100219.50;4457545;32;20001;-87
2022/07/09 01:49:47;;;;;;;;;;;;;;;18.12;60.18;100214.91;4444448;32;19982;-88
2022/07/09 01:52:12;;;;;;;;;;;;;;;18.24;60.19;100209.81;4457727;32;20322;-89
2022/07/09 01:54:38;;;;;;;;;;;;;;;18.20;60.19;100221.44;4457802;32;19984;-88
2022/07/09 01:57:03;;;;;;;;;;;;;;;18.06;60.18;100222.22;4444770;32;19996;-89
2022/07/09 01:59:28;;;;;;;;;;;;;;;18.18;60.19;100219.81;4458055;32;20014;-89
2022/07/09 02:01:54;;;;;;;;;;;;;;;18.08;60.19;100215.09;4445196;32;19999;-92
2022/07/09 02:04:19;;;;;;;;;;;;;;;17.72;60.16;100214.44;4444606;32;19988;-89
2022/07/09 02:06:44;;;;;;;;;;;;;;;17.77;60.17;100208.03;4457896;32;20019;-90
2022/07/09 02:09:10;;;;;;;;;;;;;;;17.72;60.17;100210.03;4457621;32;19977;-89
2022/07/09 02:11:35;;;;;;;;;;;;;;;17.77;60.17;100213.28;4457792;32;19981;-89
2022/07/09 02:14:00;;;;;;;;;;;;;;;17.66;60.16;100217.38;4444506;32;20339;-88
2022/07/09 02:16:25;;;;;;;;;;;;;;;17.72;60.16;100217.94;4444520;32;20005;-89
2022/07/09 02:18:51;;;;;;;;;;;;;;;17.66;60.16;100214.75;4457556;32;19973;-89
2022/07/09 02:21:16;;;;;;;;;;;;;;;17.64;60.15;100206.94;4444709;32;20015;-91
2022/07/09 02:23:42;;;;;;;;;;;;;;;17.60;60.15;100220.34;4456919;32;20283;-90
2022/07/09 02:26:07;;;;;;;;;;;;;;;17.58;60.15;100217.81;4444728;32;20002;-89
2022/07/09 02:28:32;;;;;;;;;;;;;;;17.45;60.14;100220.22;4444266;32;20337;-89
2022/07/09 02:30:58;;;;;;;;;;;;;;;17.19;60.13;100218.09;4444851;32;19984;-88
2022/07/09 02:33:23;;;;;;;;;;;;;;;17.04;60.12;100219.75;4444693;32;20008;-89
2022/07/09 02:35:48;;;;;;;;;;;;;;;17.07;60.12;100213.50;4444607;32;20012;-88
2022/07/09 02:38:13;;;;;;;;;;;;;;;17.07;60.12;100216.13;4445086;32;19995;-91
2022/07/09 02:40:39;;;;;;;;;;;;;;;17.03;60.12;100222.44;4445657;32;19985;-88
2022/07/09 02:43:04;;;;;;;;;;;;;;;17.27;60.14;100218.59;4472351;32;20037;-91
2022/07/09 02:45:29;;;;;;;;;;;;;;;17.14;60.13;100220.13;4456147;32;19996;-91
2022/07/09 02:47:55;;;;;;;;;;;;;;;17.30;60.13;100226.31;4448561;32;20336;-89
2022/07/09 02:50:20;;;;;;;;;;;;;;;17.17;60.14;100217.34;4471723;32;19996;-89
2022/07/09 02:52:45;;;;;;;;;;;;;;;17.02;60.13;100224.22;4444345;32;19989;-89
2022/07/09 02:55:10;;;;;;;;;;;;;;;17.01;60.12;100222.53;4471656;32;19972;-90
2022/07/09 02:57:36;;;;;;;;;;;;;;;16.92;60.12;100227.41;4444507;32;19972;-89
2022/07/09 03:00:07;;;;;;;;;;;;;;;16.84;60.11;100220.78;4444564;32;19995;-90
2022/07/09 03:02:32;;;;;;;;;;;;;;;16.79;60.11;100222.75;4444176;32;20048;-88
2022/07/09 03:04:58;;;;;;;;;;;;;;;16.76;60.10;100222.06;4470761;32;23868;-88
2022/07/09 03:07:23;;;;;;;;;;;;;;;16.82;60.11;100219.16;4471280;32;20020;-88
2022/07/09 03:09:48;;;;;;;;;;;;;;;16.96;60.12;100219.28;4457043;32;19976;-87
2022/07/09 03:12:13;;;;;;;;;;;;;;;16.84;60.11;100217.28;4444065;32;19984;-88
2022/07/09 03:14:39;;;;;;;;;;;;;;;16.82;60.11;100212.12;4443590;32;22882;-87
2022/07/09 03:17:04;;;;;;;;;;;;;;;16.87;60.11;100212.72;4443967;32;19981;-87
2022/07/09 03:19:29;;;;;;;;;;;;;;;16.98;60.12;100217.44;4456719;32;19980;-88
2022/07/09 03:21:55;;;;;;;;;;;;;;;17.05;60.12;100210.94;4456914;32;20004;-87
2022/07/09 03:24:20;;;;;;;;;;;;;;;17.09;60.13;100216.91;4456764;32;20044;-87
2022/07/09 03:26:46;;;;;;;;;;;;;;;17.00;60.12;100219.97;4456553;32;20328;-87
2022/07/09 03:29:11;;;;;;;;;;;;;;;17.05;60.12;100224.09;4456938;32;20223;-86
2022/07/09 03:31:36;;;;;;;;;;;;;;;17.06;60.12;100225.78;4456118;32;26836;-87
2022/07/09 03:34:01;;;;;;;;;;;;;;;17.24;60.14;100212.59;4456804;32;20258;-87
2022/07/09 03:36:27;;;;;;;;;;;;;;;17.33;60.14;100217.41;4457053;32;19981;-87
2022/07/09 03:38:52;;;;;;;;;;;;;;;17.27;60.13;100220.34;4443560;32;20672;-87
2022/07/09 03:41:17;;;;;;;;;;;;;;;17.48;60.15;100216.56;4456274;32;24562;-87
2022/07/09 03:43:42;;;;;;;;;;;;;;;17.38;60.15;100221.50;4456209;32;23288;-88
2022/07/09 03:46:08;;;;;;;;;;;;;;;17.36;60.14;100220.72;4443805;32;20253;-89
2022/07/09 03:48:33;;;;;;;;;;;;;;;17.42;60.15;100223.03;4456964;32;19988;-89
2022/07/09 03:50:58;;;;;;;;;;;;;;;17.30;60.15;100228.09;4471115;32;19976;-89
2022/07/09 03:53:24;;;;;;;;;;;;;;;17.18;60.13;100226.94;4443704;32;19993;-88
2022/07/09 03:55:49;;;;;;;;;;;;;;;17.11;60.13;100238.72;4443435;32;24948;-90
2022/07/09 03:58:14;;;;;;;;;;;;;;;17.24;60.14;100213.44;4456858;32;19985;-87
2022/07/09 04:00:39;;;;;;;;;;;;;;;17.26;60.13;100227.37;4443339;32;24048;-88
2022/07/09 04:03:04;;;;;;;;;;;;;;;17.32;60.14;100220.97;4443829;32;20261;-88
2022/07/09 04:05:30;;;;;;;;;;;;;;;17.38;60.14;100224.13;4443579;32;19976;-88
2022/07/09 04:07:55;;;;;;;;;;;;;;;17.29;60.13;100229.88;4457175;32;19977;-90
2022/07/09 04:10:20;;;;;;;;;;;;;;;17.39;60.14;100233.72;4444508;32;22077;-91
2022/07/09 04:12:46;;;;;;;;;;;;;;;17.22;60.13;100235.50;4445053;32;19981;-90
2022/07/09 04:15:11;;;;;;;;;;;;;;;17.46;60.15;100232.44;4445347;32;19995;-90
2022/07/09 04:17:36;;;;;;;;;;;;;;;17.42;60.14;100241.44;4446290;32;20309;-89
2022/07/09 04:20:01;;;;;;;;;;;;;;;17.58;60.15;100240.66;4449170;32;19997;-87
2022/07/09 04:22:27;;;;;;;;;;;;;;;17.68;60.15;100241.88;4469141;32;20317;-87
2022/07/09 04:24:52;;;;;;;;;;;;;;;17.81;60.16;100232.41;4471339;32;20355;-89
2022/07/09 04:27:17;;;;;;;;;;;;;;;17.73;60.16;100239.84;4456536;32;19965;-90
2022/07/09 04:29:42;;;;;;;;;;;;;;;17.74;60.16;100244.19;4471534;32;20021;-89
2022/07/09 04:32:08;;;;;;;;;;;;;;;17.86;60.17;100235.62;4457039;32;19984;-92
2022/07/09 04:34:33;;;;;;;;;;;;;;;18.00;60.17;100240.16;4444436;32;19973;-92
2022/07/09 04:36:58;;;;;;;;;;;;;;;17.97;60.17;100240.31;4456562;32;20284;-89
2022/07/09 04:39:24;;;;;;;;;;;;;;;18.10;60.18;100238.69;4443804;32;20343;-90
2022/07/09 04:41:49;;;;;;;;;;;;;;;18.23;60.19;100236.25;4456534;32;20235;-89
2022/07/09 04:44:15;;;;;;;;;;;;;;;18.17;60.19;100239.22;4443405;32;20249;-89
2022/07/09 04:46:41;;;;;;;;;;;;;;;18.11;60.18;100240.41;4455909;32;20030;-91
2022/07/09 04:49:06;;;;;;;;;;;;;;;18.21;60.18;100244.22;4443558;32;19997;-90
2022/07/09 04:51:31;;;;;;;;;;;;;;;18.08;60.18;100238.78;4443101;32;20015;-91
2022/07/09 04:53:57;;;;;;;;;;;;;;;18.07;60.19;100236.25;4443412;32;19988;-91
2022/07/09 04:56:22;;;;;;;;;;;;;;;18.12;60.18;100233.34;4443813;32;19985;-90
2022/07/09 05:01:54;;;;;;;;;;;;;;;18.05;60.18;100244.22;4447935;32;19996;-92
2022/07/09 05:04:19;;;;;;;;;;;;;;;18.03;60.17;100237.34;4457269;32;19965;-92
2022/07/09 05:06:45;;;;;;;;;;;;;;;17.92;60.18;100243.19;4457193;32;19991;-92
2022/07/09 05:09:10;;;;;;;;;;;;;;;17.91;60.16;100241.50;4444166;32;20004;-90
2022/07/09 05:11:35;;;;;;;;;;;;;;;18.03;60.17;100246.09;4443727;32;19996;-91
2022/07/09 05:14:13;;;;;;;;;;;;;;;17.95;60.17;100243.00;4443529;32;19984;-91
2022/07/09 05:16:44;;;;;;;;;;;;;;;17.94;60.18;100232.56;4443485;32;19985;-90
2022/07/09 05:19:09;;;;;;;;;;;;;;;17.99;60.17;100236.69;4443664;32;20038;-90
2022/07/09 05:21:34;;;;;;;;;;;;;;;18.08;60.18;100235.31;4456015;32;19989;-90
2022/07/09 05:24:01;;;;;;;;;;;;;;;18.26;60.19;100236.94;4455925;32;19987;-90
2022/07/09 05:26:29;;;;;;;;;;;;;;;18.30;60.18;100227.91;4442954;32;20048;-91
2022/07/09 05:28:54;;;;;;;;;;;;;;;18.40;60.20;100238.78;4443365;32;20040;-91
2022/07/09 05:31:20;;;;;;;;;;;;;;;18.53;60.19;100234.50;4443070;32;20310;-90
2022/07/09 05:33:45;;;;;;;;;;;;;;;18.57;60.20;100233.41;4442934;32;19995;-92
2022/07/09 05:36:11;;;;;;;;;;;;;;;18.52;60.20;100242.50;4442809;32;20288;-92
2022/07/09 05:38:36;;;;;;;;;;;;;;;18.70;60.22;100230.94;4455968;32;19995;-92
2022/07/09 05:41:01;;;;;;;;;;;;;;;18.74;60.21;100243.00;4443248;32;19996;-92
2022/07/09 05:43:26;;;;;;;;;;;;;;;18.81;60.22;100241.72;4442725;32;19985;-92
2022/07/09 05:45:52;;;;;;;;;;;;;;;18.79;60.22;100242.75;4443214;32;19991;-92
2022/07/09 05:48:17;;;;;;;;;;;;;;;19.03;60.23;100246.59;4443350;32;19997;-92
2022/07/09 05:50:42;;;;;;;;;;;;;;;19.04;60.23;100250.06;4443764;32;19993;-91
2022/07/09 05:53:07;;;;;;;;;;;;;;;18.99;60.22;100240.66;4444698;32;20086;-91
2022/07/09 05:55:33;;;;;;;;;;;;;;;19.35;60.25;100249.09;4446719;32;20360;-92
2022/07/09 05:58:07;;;;;;;;;;;;;;;19.33;60.25;100241.25;4468535;32;20009;-90
2022/07/09 06:00:33;;;;;;;;;;;;;;;19.29;60.23;100250.31;4459661;32;19992;-92
2022/07/09 06:02:58;;;;;;;;;;;;;;;19.42;60.24;100250.44;4444693;32;20001;-92
2022/07/09 06:05:23;;;;;;;;;;;;;;;19.54;60.26;100250.56;4444725;32;20062;-89
2022/07/09 06:07:48;;;;;;;;;;;;;;;19.64;60.26;100245.56;4444523;32;19996;-90
2022/07/09 06:10:16;;;;;;;;;;;;;;;19.72;60.26;100234.53;4444472;32;20000;-91
2022/07/09 06:12:42;;;;;;;;;;;;;;;19.93;60.28;100231.41;4444959;32;20712;-92
2022/07/09 06:15:07;;;;;;;;;;;;;;;19.81;60.27;100224.22;4444865;32;20022;-90
2022/07/09 06:17:33;;;;;;;;;;;;;;;19.86;60.28;100230.06;4444864;32;20402;-89
2022/07/09 06:19:58;;;;;;;;;;;;;;;19.87;60.27;100233.56;4444256;32;24452;-91
2022/07/09 06:22:23;;;;;;;;;;;;;;;19.82;60.27;100233.84;4446664;32;20284;-95
2022/07/09 06:24:48;;;;;;;;;;;;;;;19.90;60.27;100236.87;4449780;32;19988;-95
2022/07/09 06:27:14;;;;;;;;;;;;;;;19.77;60.27;100233.28;4449061;32;21415;-95
2022/07/09 06:29:40;;;;;;;;;;;;;;;19.82;60.26;100233.00;4449781;32;20344;-95
2022/07/09 06:32:06;;;;;;;;;;;;;;;20.14;60.28;100226.53;4450297;32;20052;-95
2022/07/09 06:34:31;;;;;;;;;;;;;;;20.30;60.29;100236.13;4449603;32;19984;-94
2022/07/09 06:36:56;;;;;;;;;;;;;;;20.30;60.29;100229.03;4449734;32;19984;-94
2022/07/09 06:42:08;;;;;;;;;;;;;;;20.59;60.30;100226.34;4475760;32;19994;-96
2022/07/09 06:44:34;;;;;;;;;;;;;;;20.71;60.31;100226.38;4447721;32;20242;-94
2022/07/09 06:46:59;;;;;;;;;;;;;;;20.98;60.33;100231.59;4460324;32;20004;-95
2022/07/09 06:49:24;;;;;;;;;;;;;;;20.99;60.33;100228.00;4457669;32;20279;-95
2022/07/09 06:51:50;;;;;;;;;;;;;;;21.33;60.36;100220.47;4446043;32;20277;-95
2022/07/09 06:54:15;;;;;;;;;;;;;;;21.50;60.36;100221.91;4457717;32;19977;-94
2022/07/09 06:56:40;;;;;;;;;;;;;;;21.70;60.36;100224.88;4444053;32;22817;-95
2022/07/09 06:59:07;;;;;;;;;;;;;;;21.93;60.38;100225.03;4462893;32;19993;-94
2022/07/09 07:01:32;;;;;;;;;;;;;;;21.85;60.38;100222.09;4459460;32;20048;-94
2022/07/09 07:03:58;;;;;;;;;;;;;;;21.91;60.38;100217.19;4447505;32;19973;-96
2022/07/09 07:06:23;;;;;;;;;;;;;;;22.15;60.39;100222.56;4445705;32;20055;-94
2022/07/09 07:08:48;;;;;;;;;;;;;;;22.19;60.40;100221.38;4445570;32;20412;-94
2022/07/09 07:11:14;;;;;;;;;;;;;;;22.11;60.39;100217.59;4446077;32;19977;-94
2022/07/09 07:13:39;;;;;;;;;;;;;;;22.33;60.41;100210.63;4447676;32;20015;-94
2022/07/09 07:16:04;;;;;;;;;;;;;;;22.26;60.40;100213.84;4450074;32;19996;-94
2022/07/09 07:18:30;;;;;;;;;;;;;;;22.20;60.40;100206.31;4445526;32;20015;-95
2022/07/09 07:20:55;;;;;;;;;;;;;;;22.26;60.40;100206.75;4449141;32;19973;-96
2022/07/09 07:23:22;;;;;;;;;;;;;;;22.46;60.41;100209.72;4447829;32;20009;-96
2022/07/09 07:25:47;;;;;;;;;;;;;;;22.45;60.41;100210.66;4461852;32;20541;-96
2022/07/09 07:28:13;;;;;;;;;;;;;;;22.02;60.39;100212.00;4447450;32;20086;-94
2022/07/09 07:30:38;;;;;;;;;;;;;;;22.22;60.40;100215.84;4450452;32;20522;-96
2022/07/09 07:33:04;;;;;;;;;;;;;;;22.34;60.40;100201.72;4455883;32;19999;-96
2022/07/09 07:35:32;;;;;;;;;;;;;;;22.65;60.43;100202.09;4452227;32;19992;-95
2022/07/09 07:37:59;;;;;;;;;;;;;;;22.93;60.44;100211.50;4451949;32;19966;-96
2022/07/09 07:40:25;;;;;;;;;;;;;;;22.80;60.43;100205.41;4459019;32;19977;-96
2022/07/09 07:42:50;;;;;;;;;;;;;;;22.89;60.43;100210.03;4446057;32;20034;-93
2022/07/09 07:45:16;;;;;;;;;;;;;;;23.20;60.45;100206.75;4444395;32;19989;-96
2022/07/09 07:47:41;;;;;;;;;;;;;;;23.30;60.46;100196.25;4447602;32;20354;-96
2022/07/09 07:50:06;;;;;;;;;;;;;;;23.46;60.46;100196.75;4450299;32;20012;-96
2022/07/09 07:52:44;;;;;;;;;;;;;;;23.67;60.47;100191.59;4447481;32;19973;-95
2022/07/09 07:55:26;;;;;;;;;;;;;;;23.57;60.48;100191.44;4461237;32;20039;-96
2022/07/09 07:57:52;;;;;;;;;;;;;;;23.59;60.47;100191.31;4477268;32;19957;-96
2022/07/09 08:00:17;;;;;;;;;;;;;;;23.54;60.46;100178.38;4446881;32;19984;-94
2022/07/09 08:02:42;;;;;;;;;;;;;;;23.63;60.47;100181.28;4445382;32;19999;-95
2022/07/09 08:05:08;;;;;;;;;;;;;;;23.60;60.47;100182.38;4445051;32;19969;-94
2022/07/09 08:07:34;;;;;;;;;;;;;;;23.63;60.47;100173.31;4445396;32;20357;-96
2022/07/09 08:10:00;;;;;;;;;;;;;;;23.48;60.46;100186.84;4460187;32;19973;-96
2022/07/09 08:12:26;;;;;;;;;;;;;;;23.52;60.47;100179.47;4445067;32;20235;-94
2022/07/09 08:14:51;;;;;;;;;;;;;;;23.64;60.47;100175.00;4445412;32;19993;-95
2022/07/09 08:17:16;;;;;;;;;;;;;;;23.89;60.49;100172.06;4443681;32;19997;-93
2022/07/09 08:19:41;;;;;;;;;;;;;;;24.15;60.50;100167.34;4443459;32;19981;-93
2022/07/09 08:22:07;;;;;;;;;;;;;;;24.42;60.51;100158.91;4447156;32;19977;-96
2022/07/09 08:24:34;;;;;;;;;;;;;;;24.34;60.51;100153.38;4443863;32;20332;-96
2022/07/09 08:27:00;;;;;;;;;;;;;;;24.57;60.52;100160.28;4444999;32;19996;-96
2022/07/09 08:29:25;;;;;;;;;;;;;;;24.65;60.52;100157.00;4444791;32;19984;-95
2022/07/09 08:31:50;;;;;;;;;;;;;;;24.79;60.53;100159.31;4444791;32;19985;-93
2022/07/09 08:34:16;;;;;;;;;;;;;;;24.79;60.53;100152.19;4443029;32;20023;-93
2022/07/09 08:36:41;;;;;;;;;;;;;;;24.96;60.54;100155.22;4455406;32;20000;-92
2022/07/09 08:39:07;;;;;;;;;;;;;;;25.11;60.55;100163.78;4446535;32;20264;-94
2022/07/09 08:41:32;;;;;;;;;;;;;;;25.02;60.54;100147.59;4443791;32;19973;-96
2022/07/09 08:43:57;;;;;;;;;;;;;;;25.32;60.56;100145.94;4446103;32;20338;-93
2022/07/09 08:46:23;;;;;;;;;;;;;;;25.20;60.55;100144.31;4443956;32;19997;-95
2022/07/09 08:48:48;;;;;;;;;;;;;;;25.41;60.57;100139.78;4445915;32;19973;-94
2022/07/09 08:51:13;;;;;;;;;;;;;;;25.40;60.57;100143.44;4445193;32;21765;-95
2022/07/09 08:53:43;;;;;;;;;;;;;;;25.63;60.57;100146.75;4445998;32;20000;-94
2022/07/09 08:56:08;;;;;;;;;;;;;;;25.74;60.58;100138.66;4443379;32;20011;-94
2022/07/09 08:58:33;;;;;;;;;;;;;;;25.96;60.59;100126.91;4457093;32;20013;-95
2022/07/09 09:00:59;;;;;;;;;;;;;;;26.06;60.60;100133.13;4445132;32;20306;-93
2022/07/09 09:03:24;;;;;;;;;;;;;;;25.95;60.59;100142.06;4442611;32;19985;-95
2022/07/09 09:06:05;;;;;;;;;;;;;;;26.09;60.59;100134.66;4444839;32;20007;-94
2022/07/09 09:08:37;;;;;;;;;;;;;;;26.08;60.61;100143.66;4447583;32;19957;-94
2022/07/09 09:11:03;;;;;;;;;;;;;;;26.05;60.60;100142.09;4467133;32;19974;-94
2022/07/09 09:13:28;;;;;;;;;;;;;;;26.20;60.61;100131.84;4456758;32;20000;-94
2022/07/09 09:16:04;;;;;;;;;;;;;;;26.36;60.61;100132.19;4443163;32;20035;-93
2022/07/09 09:18:29;;;;;;;;;;;;;;;26.27;60.61;100133.84;4441244;32;20024;-96
2022/07/09 09:20:54;;;;;;;;;;;;;;;26.21;60.61;100136.19;4442144;32;20296;-94
2022/07/09 09:23:19;;;;;;;;;;;;;;;26.31;60.61;100123.72;4440966;32;19997;-95
2022/07/09 09:25:45;;;;;;;;;;;;;;;26.41;60.62;100124.56;4440995;32;19989;-93
2022/07/09 09:28:12;;;;;;;;;;;;;;;26.44;60.62;100124.28;4441953;32;20017;-94
2022/07/09 09:30:40;;;;;;;;;;;;;;;26.48;60.63;100112.34;4453933;32;20594;-94
2022/07/09 09:33:05;;;;;;;;;;;;;;;26.73;60.64;100115.41;4457592;32;20603;-93
2022/07/09 09:35:34;;;;;;;;;;;;;;;26.69;60.63;100117.50;4442570;32;33739;-92
2022/07/09 09:37:59;;;;;;;;;;;;;;;26.76;60.64;100107.12;4444518;32;20037;-93
2022/07/09 09:40:24;;;;;;;;;;;;;;;26.76;60.64;100101.78;4456003;32;20312;-94
2022/07/09 09:42:50;;;;;;;;;;;;;;;26.78;60.63;100103.31;4443124;32;19982;-94
2022/07/09 09:45:15;;;;;;;;;;;;;;;26.74;60.64;100115.28;4442973;32;19992;-93
2022/07/09 09:47:43;;;;;;;;;;;;;;;26.73;60.64;100100.22;4442866;32;19982;-93
2022/07/09 09:50:13;;;;;;;;;;;;;;;26.71;60.65;100115.53;4456290;32;19974;-94
2022/07/09 09:52:38;;;;;;;;;;;;;;;26.83;60.64;100097.53;4443556;32;19995;-93
2022/07/09 09:55:04;;;;;;;;;;;;;;;26.81;60.65;100110.19;4445762;32;20039;-95
2022/07/09 09:57:29;;;;;;;;;;;;;;;26.63;60.64;100086.06;4456009;32;20258;-93
2022/07/09 09:59:54;;;;;;;;;;;;;;;26.84;60.64;100088.53;4444476;32;20022;-94
2022/07/09 10:02:19;;;;;;;;;;;;;;;27.01;60.65;100087.81;4444202;32;20330;-93
2022/07/09 10:04:45;;;;;;;;;;;;;;;27.16;60.66;100089.00;4445453;32;20314;-96
2022/07/09 10:07:15;;;;;;;;;;;;;;;27.47;60.68;100083.41;4445509;32;20026;-95
2022/07/09 10:09:40;;;;;;;;;;;;;;;27.15;60.66;100084.66;4445698;32;19985;-96
2022/07/09 10:12:20;;;;;;;;;;;;;;;27.34;60.68;100078.38;4448916;32;20239;-94
2022/07/09 10:14:46;;;;;;;;;;;;;;;27.17;60.66;100084.50;4460620;32;20008;-95
2022/07/09 10:17:15;;;;;;;;;;;;;;;27.07;60.66;100076.53;4445818;32;19978;-96
2022/07/09 10:19:52;;;;;;;;;;;;;;;27.11;60.66;100075.25;4458616;32;19972;-96
2022/07/09 10:22:17;;;;;;;;;;;;;;;27.21;60.67;100083.25;4460448;32;19989;-96
2022/07/09 10:24:44;;;;;;;;;;;;;;;27.37;60.67;100083.44;4446053;32;20302;-95
2022/07/09 10:27:18;;;;;;;;;;;;;;;27.47;60.68;100078.03;4472476;32;19955;-96
2022/07/09 10:29:57;;;;;;;;;;;;;;;27.18;60.66;100087.03;4476984;32;20045;-96
2022/07/09 10:32:30;;;;;;;;;;;;;;;26.95;60.66;100074.16;4460853;32;20685;-96
2022/07/09 10:34:55;;;;;;;;;;;;;;;27.00;60.65;100072.78;4461703;32;20000;-95
2022/07/09 10:37:30;;;;;;;;;;;;;;;27.16;60.66;100062.28;4460868;32;20293;-96
2022/07/09 10:39:57;;;;;;;;;;;;;;;27.12;60.66;100050.22;4457390;32;19984;-96
2022/07/09 10:42:26;;;;;;;;;;;;;;;27.60;60.69;100043.75;4447157;32;19958;-96
2022/07/09 10:44:51;;;;;;;;;;;;;;;27.87;60.69;100058.09;4449409;32;19981;-95
2022/07/09 10:47:17;;;;;;;;;;;;;;;27.71;60.69;100059.62;4456800;32;19973;-96
2022/07/09 10:49:42;;;;;;;;;;;;;;;27.67;60.70;100060.06;4449617;32;20381;-96
2022/07/09 10:52:07;;;;;;;;;;;;;;;27.66;60.69;100053.03;4445624;32;20093;-96
2022/07/09 10:54:33;;;;;;;;;;;;;;;27.70;60.69;100054.44;4449013;32;20000;-96
2022/07/09 10:56:58;;;;;;;;;;;;;;;27.69;60.69;100037.53;4448088;32;20378;-96
2022/07/09 10:59:24;;;;;;;;;;;;;;;27.84;60.70;100048.53;4446894;32;20024;-96
2022/07/09 11:01:50;;;;;;;;;;;;;;;27.83;60.70;100046.84;4447512;32;20010;-95
2022/07/09 11:04:25;;;;;;;;;;;;;;;27.97;60.71;100050.84;4447944;32;19978;-95
2022/07/09 11:06:50;;;;;;;;;;;;;;;28.01;60.70;100057.56;4461905;32;20032;-96
2022/07/09 11:09:16;;;;;;;;;;;;;;;28.18;60.72;100047.84;4448638;32;19981;-96
2022/07/09 11:11:42;;;;;;;;;;;;;;;28.14;60.72;100040.09;4447665;32;19988;-96
2022/07/09 11:14:08;;;;;;;;;;;;;;;28.13;60.72;100042.94;4447560;32;19953;-96
2022/07/09 11:16:33;;;;;;;;;;;;;;;28.34;60.72;100031.94;4460237;32;19990;-94
2022/07/09 11:18:58;;;;;;;;;;;;;;;28.62;60.74;100038.81;4447112;32;20018;-96
2022/07/09 11:21:27;;;;;;;;;;;;;;;28.48;60.73;100036.72;4446426;32;20012;-96
2022/07/09 11:23:52;;;;;;;;;;;;;;;28.36;60.72;100035.28;4459377;32;19993;-96
2022/07/09 11:26:18;;;;;;;;;;;;;;;28.29;60.72;100047.63;4446726;32;20026;-95
2022/07/09 11:28:44;;;;;;;;;;;;;;;28.22;60.72;100025.97;4446505;32;20040;-94
2022/07/09 11:31:09;;;;;;;;;;;;;;;28.38;60.72;100034.13;4459418;32;20007;-95
2022/07/09 11:36:18;;;;;;;;;;;;;;;27.95;60.70;100021.56;4460820;32;19975;-94
2022/07/09 11:38:50;;;;;;;;;;;;;;;27.68;60.69;100018.94;4446190;32;20000;-95
2022/07/09 11:41:15;;;;;;;;;;;;;;;27.86;60.70;100014.44;4446327;32;20110;-96
2022/07/09 11:43:45;;;;;;;;;;;;;;;28.02;60.70;100017.28;4444998;32;20005;-96
2022/07/09 11:46:10;;;;;;;;;;;;;;;28.05;60.72;100000.06;4444957;32;19985;-95
2022/07/09 11:48:35;;;;;;;;;;;;;;;28.08;60.71;99991.72;4445407;32;20626;-95
2022/07/09 11:51:01;;;;;;;;;;;;;;;28.11;60.71;99989.56;4446283;32;20750;-94
2022/07/09 11:53:26;;;;;;;;;;;;;;;28.09;60.71;99991.56;4459023;32;19989;-95
2022/07/09 11:56:01;;;;;;;;;;;;;;;27.97;60.71;100000.00;4444675;32;23505;-95
2022/07/09 11:58:27;;;;;;;;;;;;;;;28.12;60.71;99974.34;4459890;32;19956;-94
2022/07/09 12:00:52;;;;;;;;;;;;;;;28.21;60.72;99973.44;4445391;32;19999;-95
2022/07/09 12:03:24;;;;;;;;;;;;;;;28.10;60.72;99961.13;4444936;32;20261;-95
2022/07/09 12:05:50;;;;;;;;;;;;;;;28.03;60.71;99964.59;4444792;32;19987;-95
2022/07/09 12:08:25;;;;;;;;;;;;;;;28.16;60.72;99961.53;4444672;32;19992;-93
2022/07/09 12:10:50;;;;;;;;;;;;;;;27.97;60.71;99954.50;4445184;32;19989;-94
2022/07/09 12:13:15;;;;;;;;;;;;;;;28.03;60.71;99964.59;4444329;32;25153;-94
2022/07/09 12:15:40;;;;;;;;;;;;;;;28.26;60.72;99963.13;4444247;32;21835;-94
2022/07/09 12:18:05;;;;;;;;;;;;;;;28.25;60.72;99956.09;4444463;32;20014;-94
2022/07/09 12:20:31;;;;;;;;;;;;;;;28.32;60.72;99946.41;4443992;32;21851;-95
2022/07/09 12:22:56;;;;;;;;;;;;;;;28.43;60.74;99948.84;4447173;32;19996;-93
2022/07/09 12:25:21;;;;;;;;;;;;;;;28.36;60.74;99942.41;4449534;32;19973;-93
2022/07/09 12:27:47;;;;;;;;;;;;;;;28.45;60.73;99937.12;4444402;32;20264;-93
2022/07/09 12:30:12;;;;;;;;;;;;;;;28.53;60.74;99935.31;4444955;32;20032;-94
2022/07/09 12:32:38;;;;;;;;;;;;;;;28.57;60.74;99941.19;4444470;32;20001;-92
2022/07/09 12:35:03;;;;;;;;;;;;;;;28.31;60.73;99938.53;4444356;32;19972;-95
2022/07/09 12:37:29;;;;;;;;;;;;;;;28.26;60.72;99932.81;4444233;32;19977;-94
2022/07/09 12:39:54;;;;;;;;;;;;;;;28.28;60.73;99915.59;4444597;32;20335;-94